< < Back
Terminal Aerodrome Forecast


Current Version              Previous Versions:   1  2  3  4  5  6  7  8  9  

Terminal Aerodrome Forecast

200
FTUS42 KTAE 280500
TAFVLD
TAF
KVLD 280530Z 2806/2906 00000KT P6SM SKC=

Latest METAR

496
SAUS70 KWBC 280800 RRF
MTRVLD
METAR KVLD 280753Z AUTO 00000KT 10SM CLR 01/M01 A3036 RMK AO2 SLP290
T00061011


USA.gov is the U.S. government's official web portal to all federal, state and local government web resources and services.